sensor_id;sensor_type;location;lat;lon;timestamp;P1;durP1;ratioP1;P2;durP2;ratioP2
78555;SDS011;67851;51.354;7.744;2023-06-14T00:00:21;7.18;;;4.53;;
78555;SDS011;67851;51.354;7.744;2023-06-14T00:02:47;6.68;;;4.38;;
78555;SDS011;67851;51.354;7.744;2023-06-14T00:05:14;8.68;;;4.68;;
78555;SDS011;67851;51.354;7.744;2023-06-14T00:07:40;11.23;;;5.38;;
78555;SDS011;67851;51.354;7.744;2023-06-14T00:10:09;6.22;;;4.97;;
78555;SDS011;67851;51.354;7.744;2023-06-14T00:12:36;7.20;;;4.43;;
78555;SDS011;67851;51.354;7.744;2023-06-14T00:15:02;17.05;;;5.35;;
78555;SDS011;67851;51.354;7.744;2023-06-14T00:17:28;8.20;;;4.70;;
78555;SDS011;67851;51.354;7.744;2023-06-14T00:19:56;8.70;;;4.97;;
78555;SDS011;67851;51.354;7.744;2023-06-14T00:22:22;7.72;;;5.10;;
78555;SDS011;67851;51.354;7.744;2023-06-14T00:24:50;7.78;;;5.00;;
78555;SDS011;67851;51.354;7.744;2023-06-14T00:27:16;8.90;;;5.45;;
78555;SDS011;67851;51.354;7.744;2023-06-14T00:29:41;10.48;;;5.15;;
78555;SDS011;67851;51.354;7.744;2023-06-14T00:32:07;13.25;;;5.25;;
78555;SDS011;67851;51.354;7.744;2023-06-14T00:34:33;7.35;;;4.95;;
78555;SDS011;67851;51.354;7.744;2023-06-14T00:37:00;8.85;;;5.40;;
78555;SDS011;67851;51.354;7.744;2023-06-14T00:39:26;10.70;;;4.97;;
78555;SDS011;67851;51.354;7.744;2023-06-14T00:41:52;7.70;;;5.40;;
78555;SDS011;67851;51.354;7.744;2023-06-14T00:44:19;12.05;;;5.18;;
78555;SDS011;67851;51.354;7.744;2023-06-14T00:46:45;8.45;;;4.97;;
78555;SDS011;67851;51.354;7.744;2023-06-14T00:49:10;8.52;;;5.45;;
78555;SDS011;67851;51.354;7.744;2023-06-14T00:51:37;9.45;;;5.10;;
78555;SDS011;67851;51.354;7.744;2023-06-14T00:54:05;12.00;;;4.82;;
78555;SDS011;67851;51.354;7.744;2023-06-14T00:56:31;9.90;;;5.22;;
78555;SDS011;67851;51.354;7.744;2023-06-14T00:58:57;10.90;;;5.05;;
78555;SDS011;67851;51.354;7.744;2023-06-14T01:01:22;10.23;;;4.88;;
78555;SDS011;67851;51.354;7.744;2023-06-14T01:03:50;5.65;;;4.22;;
78555;SDS011;67851;51.354;7.744;2023-06-14T01:09:30;8.27;;;4.63;;
78555;SDS011;67851;51.354;7.744;2023-06-14T01:12:05;7.63;;;4.60;;
78555;SDS011;67851;51.354;7.744;2023-06-14T01:14:37;10.82;;;4.72;;
78555;SDS011;67851;51.354;7.744;2023-06-14T01:17:07;7.43;;;4.75;;
78555;SDS011;67851;51.354;7.744;2023-06-14T01:19:45;5.80;;;4.05;;
78555;SDS011;67851;51.354;7.744;2023-06-14T01:22:13;6.37;;;4.57;;
78555;SDS011;67851;51.354;7.744;2023-06-14T01:24:39;8.20;;;4.53;;
78555;SDS011;67851;51.354;7.744;2023-06-14T01:27:10;10.63;;;5.28;;
78555;SDS011;67851;51.354;7.744;2023-06-14T01:29:37;6.15;;;4.40;;
78555;SDS011;67851;51.354;7.744;2023-06-14T01:32:03;10.48;;;4.60;;
78555;SDS011;67851;51.354;7.744;2023-06-14T01:34:30;7.53;;;3.92;;
78555;SDS011;67851;51.354;7.744;2023-06-14T01:36:57;10.82;;;4.93;;
78555;SDS011;67851;51.354;7.744;2023-06-14T01:39:25;6.28;;;4.57;;
78555;SDS011;67851;51.354;7.744;2023-06-14T01:41:54;6.40;;;4.57;;
78555;SDS011;67851;51.354;7.744;2023-06-14T01:44:20;8.70;;;4.50;;
78555;SDS011;67851;51.354;7.744;2023-06-14T01:46:47;10.10;;;4.72;;
78555;SDS011;67851;51.354;7.744;2023-06-14T01:49:13;6.45;;;4.63;;
78555;SDS011;67851;51.354;7.744;2023-06-14T01:51:40;8.15;;;4.45;;
78555;SDS011;67851;51.354;7.744;2023-06-14T01:54:07;8.10;;;4.63;;
78555;SDS011;67851;51.354;7.744;2023-06-14T01:56:33;13.63;;;4.72;;
78555;SDS011;67851;51.354;7.744;2023-06-14T01:58:58;12.82;;;4.65;;
78555;SDS011;67851;51.354;7.744;2023-06-14T02:01:24;9.43;;;4.40;;
78555;SDS011;67851;51.354;7.744;2023-06-14T02:03:50;8.63;;;3.95;;
78555;SDS011;67851;51.354;7.744;2023-06-14T02:06:16;9.88;;;4.30;;
78555;SDS011;67851;51.354;7.744;2023-06-14T02:08:42;6.97;;;4.68;;
78555;SDS011;67851;51.354;7.744;2023-06-14T02:11:08;9.23;;;4.47;;
78555;SDS011;67851;51.354;7.744;2023-06-14T02:13:34;9.30;;;4.03;;
78555;SDS011;67851;51.354;7.744;2023-06-14T02:16:01;10.40;;;4.07;;
78555;SDS011;67851;51.354;7.744;2023-06-14T02:18:27;8.70;;;4.18;;
78555;SDS011;67851;51.354;7.744;2023-06-14T02:20:56;9.10;;;4.18;;
78555;SDS011;67851;51.354;7.744;2023-06-14T02:23:21;7.35;;;3.80;;
78555;SDS011;67851;51.354;7.744;2023-06-14T02:25:47;11.10;;;4.55;;
78555;SDS011;67851;51.354;7.744;2023-06-14T02:28:12;15.32;;;4.38;;
78555;SDS011;67851;51.354;7.744;2023-06-14T02:30:38;6.65;;;4.07;;
78555;SDS011;67851;51.354;7.744;2023-06-14T02:33:04;8.35;;;3.92;;
78555;SDS011;67851;51.354;7.744;2023-06-14T02:35:31;9.40;;;4.28;;
78555;SDS011;67851;51.354;7.744;2023-06-14T02:37:57;7.85;;;4.05;;
78555;SDS011;67851;51.354;7.744;2023-06-14T02:40:22;8.70;;;3.80;;
78555;SDS011;67851;51.354;7.744;2023-06-14T02:42:49;5.85;;;4.32;;
78555;SDS011;67851;51.354;7.744;2023-06-14T02:45:16;9.23;;;3.90;;
78555;SDS011;67851;51.354;7.744;2023-06-14T02:47:42;8.73;;;4.10;;
78555;SDS011;67851;51.354;7.744;2023-06-14T02:50:10;7.40;;;4.13;;
78555;SDS011;67851;51.354;7.744;2023-06-14T02:52:38;8.07;;;4.28;;
78555;SDS011;67851;51.354;7.744;2023-06-14T02:55:05;5.35;;;4.10;;
78555;SDS011;67851;51.354;7.744;2023-06-14T02:57:31;8.25;;;3.90;;
78555;SDS011;67851;51.354;7.744;2023-06-14T02:59:57;8.52;;;4.03;;
78555;SDS011;67851;51.354;7.744;2023-06-14T03:02:23;8.05;;;4.28;;
78555;SDS011;67851;51.354;7.744;2023-06-14T03:04:48;6.53;;;4.43;;
78555;SDS011;67851;51.354;7.744;2023-06-14T03:07:16;8.18;;;3.72;;
78555;SDS011;67851;51.354;7.744;2023-06-14T03:09:51;6.53;;;4.53;;
78555;SDS011;67851;51.354;7.744;2023-06-14T03:12:18;5.97;;;4.15;;
78555;SDS011;67851;51.354;7.744;2023-06-14T03:14:43;11.60;;;4.50;;
78555;SDS011;67851;51.354;7.744;2023-06-14T03:17:19;7.32;;;4.35;;
78555;SDS011;67851;51.354;7.744;2023-06-14T03:19:45;6.75;;;4.80;;
78555;SDS011;67851;51.354;7.744;2023-06-14T03:22:14;8.25;;;5.00;;
78555;SDS011;67851;51.354;7.744;2023-06-14T03:24:42;11.55;;;3.90;;
78555;SDS011;67851;51.354;7.744;2023-06-14T03:27:12;6.47;;;4.72;;
78555;SDS011;67851;51.354;7.744;2023-06-14T03:29:43;6.13;;;4.60;;
78555;SDS011;67851;51.354;7.744;2023-06-14T03:32:10;9.82;;;3.88;;
78555;SDS011;67851;51.354;7.744;2023-06-14T03:34:38;9.10;;;4.28;;
78555;SDS011;67851;51.354;7.744;2023-06-14T03:37:05;5.00;;;3.83;;
78555;SDS011;67851;51.354;7.744;2023-06-14T03:39:32;7.90;;;3.85;;
78555;SDS011;67851;51.354;7.744;2023-06-14T03:42:00;6.40;;;4.53;;
78555;SDS011;67851;51.354;7.744;2023-06-14T03:44:26;8.80;;;4.45;;
78555;SDS011;67851;51.354;7.744;2023-06-14T03:46:54;8.38;;;3.95;;
78555;SDS011;67851;51.354;7.744;2023-06-14T03:49:20;9.73;;;4.50;;
78555;SDS011;67851;51.354;7.744;2023-06-14T03:51:46;10.68;;;4.65;;
78555;SDS011;67851;51.354;7.744;2023-06-14T03:54:19;11.93;;;4.72;;
78555;SDS011;67851;51.354;7.744;2023-06-14T03:56:47;6.47;;;4.65;;
78555;SDS011;67851;51.354;7.744;2023-06-14T03:59:13;8.75;;;4.50;;
78555;SDS011;67851;51.354;7.744;2023-06-14T04:01:38;7.03;;;3.78;;
78555;SDS011;67851;51.354;7.744;2023-06-14T04:04:13;7.22;;;3.80;;
78555;SDS011;67851;51.354;7.744;2023-06-14T04:06:42;9.70;;;4.25;;
78555;SDS011;67851;51.354;7.744;2023-06-14T04:09:13;8.82;;;4.32;;
78555;SDS011;67851;51.354;7.744;2023-06-14T04:11:42;8.73;;;3.78;;
78555;SDS011;67851;51.354;7.744;2023-06-14T04:14:09;7.85;;;3.60;;
78555;SDS011;67851;51.354;7.744;2023-06-14T04:16:35;4.90;;;4.18;;
78555;SDS011;67851;51.354;7.744;2023-06-14T04:19:00;4.90;;;3.83;;
78555;SDS011;67851;51.354;7.744;2023-06-14T04:21:27;6.05;;;4.15;;
78555;SDS011;67851;51.354;7.744;2023-06-14T04:23:57;9.07;;;4.22;;
78555;SDS011;67851;51.354;7.744;2023-06-14T04:26:28;8.48;;;3.72;;
78555;SDS011;67851;51.354;7.744;2023-06-14T04:28:56;7.05;;;3.75;;
78555;SDS011;67851;51.354;7.744;2023-06-14T04:31:29;8.05;;;3.70;;
78555;SDS011;67851;51.354;7.744;2023-06-14T04:34:00;11.95;;;3.63;;
78555;SDS011;67851;51.354;7.744;2023-06-14T04:36:27;7.93;;;3.78;;
78555;SDS011;67851;51.354;7.744;2023-06-14T04:38:54;7.50;;;3.80;;
78555;SDS011;67851;51.354;7.744;2023-06-14T04:41:22;12.55;;;4.22;;
78555;SDS011;67851;51.354;7.744;2023-06-14T04:43:54;7.97;;;4.53;;
78555;SDS011;67851;51.354;7.744;2023-06-14T04:46:24;6.22;;;3.63;;
78555;SDS011;67851;51.354;7.744;2023-06-14T04:48:49;6.03;;;3.53;;
78555;SDS011;67851;51.354;7.744;2023-06-14T04:51:17;5.15;;;3.30;;
78555;SDS011;67851;51.354;7.744;2023-06-14T04:53:46;5.70;;;3.30;;
78555;SDS011;67851;51.354;7.744;2023-06-14T04:56:14;5.32;;;2.90;;
78555;SDS011;67851;51.354;7.744;2023-06-14T04:58:42;7.97;;;3.33;;
78555;SDS011;67851;51.354;7.744;2023-06-14T05:01:09;4.00;;;2.72;;
78555;SDS011;67851;51.354;7.744;2023-06-14T05:03:34;4.75;;;3.03;;
78555;SDS011;67851;51.354;7.744;2023-06-14T05:06:02;4.97;;;3.13;;
78555;SDS011;67851;51.354;7.744;2023-06-14T05:08:28;6.13;;;3.10;;
78555;SDS011;67851;51.354;7.744;2023-06-14T05:10:53;7.40;;;3.20;;
78555;SDS011;67851;51.354;7.744;2023-06-14T05:13:19;10.55;;;3.78;;
78555;SDS011;67851;51.354;7.744;2023-06-14T05:15:49;6.97;;;4.00;;
78555;SDS011;67851;51.354;7.744;2023-06-14T05:18:18;5.93;;;3.00;;
78555;SDS011;67851;51.354;7.744;2023-06-14T05:20:45;13.85;;;4.07;;
78555;SDS011;67851;51.354;7.744;2023-06-14T05:23:11;7.78;;;3.67;;
78555;SDS011;67851;51.354;7.744;2023-06-14T05:25:44;14.02;;;4.60;;
78555;SDS011;67851;51.354;7.744;2023-06-14T05:28:10;10.27;;;3.92;;
78555;SDS011;67851;51.354;7.744;2023-06-14T05:30:37;10.38;;;3.25;;
78555;SDS011;67851;51.354;7.744;2023-06-14T05:33:04;4.15;;;2.80;;
78555;SDS011;67851;51.354;7.744;2023-06-14T05:35:30;4.35;;;2.03;;
78555;SDS011;67851;51.354;7.744;2023-06-14T05:37:56;3.95;;;2.65;;
78555;SDS011;67851;51.354;7.744;2023-06-14T05:40:22;3.00;;;1.90;;
78555;SDS011;67851;51.354;7.744;2023-06-14T05:42:48;4.43;;;1.88;;
78555;SDS011;67851;51.354;7.744;2023-06-14T05:45:14;4.43;;;1.80;;
78555;SDS011;67851;51.354;7.744;2023-06-14T05:47:41;3.70;;;2.25;;
78555;SDS011;67851;51.354;7.744;2023-06-14T05:50:07;2.80;;;1.85;;
78555;SDS011;67851;51.354;7.744;2023-06-14T05:52:35;5.75;;;1.65;;
78555;SDS011;67851;51.354;7.744;2023-06-14T05:55:02;5.63;;;1.63;;
78555;SDS011;67851;51.354;7.744;2023-06-14T05:57:28;4.82;;;1.92;;
78555;SDS011;67851;51.354;7.744;2023-06-14T05:59:57;3.35;;;2.00;;
78555;SDS011;67851;51.354;7.744;2023-06-14T06:02:22;2.65;;;1.38;;
78555;SDS011;67851;51.354;7.744;2023-06-14T06:04:47;3.75;;;1.70;;
78555;SDS011;67851;51.354;7.744;2023-06-14T06:07:13;5.40;;;1.60;;
78555;SDS011;67851;51.354;7.744;2023-06-14T06:09:38;2.15;;;1.67;;
78555;SDS011;67851;51.354;7.744;2023-06-14T06:12:06;2.17;;;1.50;;
78555;SDS011;67851;51.354;7.744;2023-06-14T06:14:32;7.10;;;1.95;;
78555;SDS011;67851;51.354;7.744;2023-06-14T06:16:58;2.55;;;1.80;;
78555;SDS011;67851;51.354;7.744;2023-06-14T06:19:28;3.95;;;1.48;;
78555;SDS011;67851;51.354;7.744;2023-06-14T06:21:54;2.60;;;1.80;;
78555;SDS011;67851;51.354;7.744;2023-06-14T06:24:23;13.52;;;1.75;;
78555;SDS011;67851;51.354;7.744;2023-06-14T06:26:48;3.53;;;1.80;;
78555;SDS011;67851;51.354;7.744;2023-06-14T06:29:14;3.03;;;1.50;;
78555;SDS011;67851;51.354;7.744;2023-06-14T06:31:39;2.58;;;1.95;;
78555;SDS011;67851;51.354;7.744;2023-06-14T06:34:05;4.97;;;1.85;;
78555;SDS011;67851;51.354;7.744;2023-06-14T06:36:32;4.82;;;2.30;;
78555;SDS011;67851;51.354;7.744;2023-06-14T06:38:57;3.60;;;1.77;;
78555;SDS011;67851;51.354;7.744;2023-06-14T06:41:23;5.65;;;1.88;;
78555;SDS011;67851;51.354;7.744;2023-06-14T06:43:49;2.90;;;1.65;;
78555;SDS011;67851;51.354;7.744;2023-06-14T06:46:16;2.90;;;1.80;;
78555;SDS011;67851;51.354;7.744;2023-06-14T06:48:44;9.43;;;2.15;;
78555;SDS011;67851;51.354;7.744;2023-06-14T06:51:09;5.07;;;1.80;;
78555;SDS011;67851;51.354;7.744;2023-06-14T06:53:35;6.45;;;2.20;;
78555;SDS011;67851;51.354;7.744;2023-06-14T06:56:01;4.05;;;2.25;;
78555;SDS011;67851;51.354;7.744;2023-06-14T06:58:37;2.92;;;1.92;;
78555;SDS011;67851;51.354;7.744;2023-06-14T07:01:04;3.83;;;2.00;;
78555;SDS011;67851;51.354;7.744;2023-06-14T07:03:37;4.20;;;1.42;;
78555;SDS011;67851;51.354;7.744;2023-06-14T07:06:02;7.82;;;2.17;;
78555;SDS011;67851;51.354;7.744;2023-06-14T07:08:33;6.20;;;2.30;;
78555;SDS011;67851;51.354;7.744;2023-06-14T07:11:54;8.65;;;2.40;;
78555;SDS011;67851;51.354;7.744;2023-06-14T07:14:50;7.18;;;2.38;;
78555;SDS011;67851;51.354;7.744;2023-06-14T07:17:41;3.58;;;2.28;;
78555;SDS011;67851;51.354;7.744;2023-06-14T07:24:07;13.07;;;2.63;;
78555;SDS011;67851;51.354;7.744;2023-06-14T07:26:55;4.20;;;2.38;;
78555;SDS011;67851;51.354;7.744;2023-06-14T07:29:21;4.72;;;2.67;;
78555;SDS011;67851;51.354;7.744;2023-06-14T07:31:47;4.13;;;2.20;;
78555;SDS011;67851;51.354;7.744;2023-06-14T07:34:12;6.57;;;2.17;;
78555;SDS011;67851;51.354;7.744;2023-06-14T07:36:38;5.20;;;2.05;;
78555;SDS011;67851;51.354;7.744;2023-06-14T07:39:04;8.02;;;1.80;;
78555;SDS011;67851;51.354;7.744;2023-06-14T07:41:31;3.95;;;1.63;;
78555;SDS011;67851;51.354;7.744;2023-06-14T07:43:58;3.97;;;1.70;;
78555;SDS011;67851;51.354;7.744;2023-06-14T07:46:23;3.63;;;1.65;;
78555;SDS011;67851;51.354;7.744;2023-06-14T07:48:49;3.70;;;1.40;;
78555;SDS011;67851;51.354;7.744;2023-06-14T07:51:18;4.15;;;1.42;;
78555;SDS011;67851;51.354;7.744;2023-06-14T07:53:43;6.53;;;1.90;;
78555;SDS011;67851;51.354;7.744;2023-06-14T07:56:09;5.68;;;1.70;;
78555;SDS011;67851;51.354;7.744;2023-06-14T07:58:35;3.50;;;1.63;;
78555;SDS011;67851;51.354;7.744;2023-06-14T08:01:02;2.60;;;1.60;;
78555;SDS011;67851;51.354;7.744;2023-06-14T08:03:32;3.72;;;1.38;;
78555;SDS011;67851;51.354;7.744;2023-06-14T08:05:58;3.08;;;1.90;;
78555;SDS011;67851;51.354;7.744;2023-06-14T08:08:26;3.67;;;1.67;;
78555;SDS011;67851;51.354;7.744;2023-06-14T08:10:55;6.63;;;1.40;;
78555;SDS011;67851;51.354;7.744;2023-06-14T08:13:20;4.15;;;1.60;;
78555;SDS011;67851;51.354;7.744;2023-06-14T08:15:47;2.75;;;1.33;;
78555;SDS011;67851;51.354;7.744;2023-06-14T08:18:12;4.90;;;1.30;;
78555;SDS011;67851;51.354;7.744;2023-06-14T08:20:38;5.60;;;1.83;;
78555;SDS011;67851;51.354;7.744;2023-06-14T08:23:05;5.68;;;1.10;;
78555;SDS011;67851;51.354;7.744;2023-06-14T08:25:31;3.13;;;1.40;;
78555;SDS011;67851;51.354;7.744;2023-06-14T08:27:56;5.00;;;1.60;;
78555;SDS011;67851;51.354;7.744;2023-06-14T08:30:22;2.72;;;1.10;;
78555;SDS011;67851;51.354;7.744;2023-06-14T08:32:47;2.00;;;1.40;;
78555;SDS011;67851;51.354;7.744;2023-06-14T08:35:13;5.72;;;1.48;;
78555;SDS011;67851;51.354;7.744;2023-06-14T08:37:39;1.73;;;1.30;;
78555;SDS011;67851;51.354;7.744;2023-06-14T08:40:21;3.75;;;1.77;;
78555;SDS011;67851;51.354;7.744;2023-06-14T08:42:50;1.85;;;1.27;;
78555;SDS011;67851;51.354;7.744;2023-06-14T08:45:17;4.78;;;2.00;;
78555;SDS011;67851;51.354;7.744;2023-06-14T08:47:45;5.18;;;1.17;;
78555;SDS011;67851;51.354;7.744;2023-06-14T08:50:20;2.08;;;1.20;;
78555;SDS011;67851;51.354;7.744;2023-06-14T08:52:48;1.95;;;1.13;;
78555;SDS011;67851;51.354;7.744;2023-06-14T08:55:19;3.25;;;1.63;;
78555;SDS011;67851;51.354;7.744;2023-06-14T08:57:46;2.65;;;1.30;;
78555;SDS011;67851;51.354;7.744;2023-06-14T09:00:14;8.25;;;1.40;;
78555;SDS011;67851;51.354;7.744;2023-06-14T09:02:42;6.43;;;1.20;;
78555;SDS011;67851;51.354;7.744;2023-06-14T09:05:12;1.52;;;1.17;;
78555;SDS011;67851;51.354;7.744;2023-06-14T09:07:39;4.00;;;1.30;;
78555;SDS011;67851;51.354;7.744;2023-06-14T09:10:14;3.08;;;1.63;;
78555;SDS011;67851;51.354;7.744;2023-06-14T09:12:40;5.60;;;1.42;;
78555;SDS011;67851;51.354;7.744;2023-06-14T09:15:08;4.05;;;1.40;;
78555;SDS011;67851;51.354;7.744;2023-06-14T09:17:37;3.28;;;1.40;;
78555;SDS011;67851;51.354;7.744;2023-06-14T09:20:07;2.22;;;1.30;;
78555;SDS011;67851;51.354;7.744;2023-06-14T09:23:24;1.60;;;0.90;;
78555;SDS011;67851;51.354;7.744;2023-06-14T09:25:50;3.42;;;1.02;;
78555;SDS011;67851;51.354;7.744;2023-06-14T09:28:18;3.17;;;1.20;;
78555;SDS011;67851;51.354;7.744;2023-06-14T09:30:45;4.22;;;1.35;;
78555;SDS011;67851;51.354;7.744;2023-06-14T09:33:16;1.35;;;1.00;;
78555;SDS011;67851;51.354;7.744;2023-06-14T09:35:44;2.83;;;1.10;;
78555;SDS011;67851;51.354;7.744;2023-06-14T09:38:10;1.40;;;1.00;;
78555;SDS011;67851;51.354;7.744;2023-06-14T09:40:36;3.38;;;1.25;;
78555;SDS011;67851;51.354;7.744;2023-06-14T09:43:04;4.03;;;1.42;;
78555;SDS011;67851;51.354;7.744;2023-06-14T09:45:33;2.92;;;1.40;;
78555;SDS011;67851;51.354;7.744;2023-06-14T09:48:00;2.50;;;1.30;;
78555;SDS011;67851;51.354;7.744;2023-06-14T09:50:26;3.85;;;1.15;;
78555;SDS011;67851;51.354;7.744;2023-06-14T09:52:58;2.88;;;1.08;;
78555;SDS011;67851;51.354;7.744;2023-06-14T09:55:34;1.38;;;1.20;;
78555;SDS011;67851;51.354;7.744;2023-06-14T09:58:03;1.92;;;1.10;;
78555;SDS011;67851;51.354;7.744;2023-06-14T10:00:31;2.22;;;1.05;;
78555;SDS011;67851;51.354;7.744;2023-06-14T10:03:14;12.68;;;1.42;;
78555;SDS011;67851;51.354;7.744;2023-06-14T10:05:45;4.80;;;1.30;;
78555;SDS011;67851;51.354;7.744;2023-06-14T10:08:16;1.50;;;1.13;;
78555;SDS011;67851;51.354;7.744;2023-06-14T10:10:45;2.20;;;1.00;;
78555;SDS011;67851;51.354;7.744;2023-06-14T10:13:12;8.43;;;1.60;;
78555;SDS011;67851;51.354;7.744;2023-06-14T10:18:19;3.90;;;1.38;;
78555;SDS011;67851;51.354;7.744;2023-06-14T10:23:30;2.65;;;1.20;;
78555;SDS011;67851;51.354;7.744;2023-06-14T10:25:58;3.60;;;1.30;;
78555;SDS011;67851;51.354;7.744;2023-06-14T10:28:25;4.10;;;1.13;;
78555;SDS011;67851;51.354;7.744;2023-06-14T10:31:09;3.67;;;1.10;;
78555;SDS011;67851;51.354;7.744;2023-06-14T10:33:39;3.78;;;1.30;;
78555;SDS011;67851;51.354;7.744;2023-06-14T10:39:07;3.78;;;1.15;;
78555;SDS011;67851;51.354;7.744;2023-06-14T10:41:36;7.32;;;1.48;;
78555;SDS011;67851;51.354;7.744;2023-06-14T10:46:38;10.82;;;1.58;;
78555;SDS011;67851;51.354;7.744;2023-06-14T10:49:06;5.28;;;1.35;;
78555;SDS011;67851;51.354;7.744;2023-06-14T10:51:39;2.03;;;1.23;;
78555;SDS011;67851;51.354;7.744;2023-06-14T10:54:13;7.93;;;1.63;;
78555;SDS011;67851;51.354;7.744;2023-06-14T10:56:38;3.72;;;0.95;;
78555;SDS011;67851;51.354;7.744;2023-06-14T10:59:11;3.60;;;1.52;;
78555;SDS011;67851;51.354;7.744;2023-06-14T11:01:41;4.80;;;1.40;;
78555;SDS011;67851;51.354;7.744;2023-06-14T11:04:48;7.60;;;1.67;;
78555;SDS011;67851;51.354;7.744;2023-06-14T11:07:39;6.80;;;2.25;;
78555;SDS011;67851;51.354;7.744;2023-06-14T11:10:37;2.40;;;1.30;;
78555;SDS011;67851;51.354;7.744;2023-06-14T11:13:04;3.80;;;1.70;;
78555;SDS011;67851;51.354;7.744;2023-06-14T11:15:30;4.75;;;1.45;;
78555;SDS011;67851;51.354;7.744;2023-06-14T11:17:57;8.60;;;1.70;;
78555;SDS011;67851;51.354;7.744;2023-06-14T11:20:27;6.65;;;1.73;;
78555;SDS011;67851;51.354;7.744;2023-06-14T11:22:55;5.60;;;1.83;;
78555;SDS011;67851;51.354;7.744;2023-06-14T11:25:20;2.40;;;1.30;;
78555;SDS011;67851;51.354;7.744;2023-06-14T11:27:46;2.83;;;1.38;;
78555;SDS011;67851;51.354;7.744;2023-06-14T11:30:12;7.72;;;1.50;;
78555;SDS011;67851;51.354;7.744;2023-06-14T11:32:39;2.58;;;1.38;;
78555;SDS011;67851;51.354;7.744;2023-06-14T11:35:06;4.72;;;1.40;;
78555;SDS011;67851;51.354;7.744;2023-06-14T11:37:33;2.67;;;1.40;;
78555;SDS011;67851;51.354;7.744;2023-06-14T11:39:59;2.35;;;1.38;;
78555;SDS011;67851;51.354;7.744;2023-06-14T11:42:29;3.92;;;1.30;;
78555;SDS011;67851;51.354;7.744;2023-06-14T11:44:56;11.40;;;1.70;;
78555;SDS011;67851;51.354;7.744;2023-06-14T11:47:24;3.72;;;1.30;;
78555;SDS011;67851;51.354;7.744;2023-06-14T11:49:58;2.60;;;1.50;;
78555;SDS011;67851;51.354;7.744;2023-06-14T11:52:23;4.90;;;1.30;;
78555;SDS011;67851;51.354;7.744;2023-06-14T11:54:49;2.25;;;1.38;;
78555;SDS011;67851;51.354;7.744;2023-06-14T11:57:14;3.67;;;1.40;;
78555;SDS011;67851;51.354;7.744;2023-06-14T11:59:46;4.05;;;1.85;;
78555;SDS011;67851;51.354;7.744;2023-06-14T12:02:15;4.93;;;1.30;;
78555;SDS011;67851;51.354;7.744;2023-06-14T12:04:47;5.53;;;1.70;;
78555;SDS011;67851;51.354;7.744;2023-06-14T12:07:17;2.08;;;1.30;;
78555;SDS011;67851;51.354;7.744;2023-06-14T12:12:26;2.53;;;1.33;;
78555;SDS011;67851;51.354;7.744;2023-06-14T12:14:57;3.65;;;1.10;;
78555;SDS011;67851;51.354;7.744;2023-06-14T12:17:24;6.13;;;1.80;;
78555;SDS011;67851;51.354;7.744;2023-06-14T12:19:50;5.90;;;1.20;;
78555;SDS011;67851;51.354;7.744;2023-06-14T12:22:16;1.83;;;1.13;;
78555;SDS011;67851;51.354;7.744;2023-06-14T12:24:43;1.63;;;1.30;;
78555;SDS011;67851;51.354;7.744;2023-06-14T12:27:09;3.63;;;1.30;;
78555;SDS011;67851;51.354;7.744;2023-06-14T12:29:41;3.70;;;1.58;;
78555;SDS011;67851;51.354;7.744;2023-06-14T12:32:10;1.75;;;0.90;;
78555;SDS011;67851;51.354;7.744;2023-06-14T12:34:36;1.88;;;1.30;;
78555;SDS011;67851;51.354;7.744;2023-06-14T12:37:02;3.38;;;1.70;;
78555;SDS011;67851;51.354;7.744;2023-06-14T12:39:30;5.22;;;1.65;;
78555;SDS011;67851;51.354;7.744;2023-06-14T12:42:00;2.47;;;1.90;;
78555;SDS011;67851;51.354;7.744;2023-06-14T12:44:29;2.35;;;1.40;;
78555;SDS011;67851;51.354;7.744;2023-06-14T12:46:57;1.83;;;1.30;;
78555;SDS011;67851;51.354;7.744;2023-06-14T12:49:30;4.22;;;1.25;;
78555;SDS011;67851;51.354;7.744;2023-06-14T12:51:55;4.43;;;1.40;;
78555;SDS011;67851;51.354;7.744;2023-06-14T12:54:22;4.95;;;1.58;;
78555;SDS011;67851;51.354;7.744;2023-06-14T12:56:52;3.30;;;1.48;;
78555;SDS011;67851;51.354;7.744;2023-06-14T12:59:18;5.03;;;1.45;;
78555;SDS011;67851;51.354;7.744;2023-06-14T13:01:45;2.63;;;1.60;;
78555;SDS011;67851;51.354;7.744;2023-06-14T13:04:12;3.38;;;1.38;;
78555;SDS011;67851;51.354;7.744;2023-06-14T13:06:38;1.60;;;1.35;;
78555;SDS011;67851;51.354;7.744;2023-06-14T13:09:05;1.50;;;1.25;;
78555;SDS011;67851;51.354;7.744;2023-06-14T13:11:31;2.03;;;1.50;;
78555;SDS011;67851;51.354;7.744;2023-06-14T13:13:56;1.35;;;1.25;;
78555;SDS011;67851;51.354;7.744;2023-06-14T13:16:22;6.30;;;1.10;;
78555;SDS011;67851;51.354;7.744;2023-06-14T13:18:48;4.07;;;1.38;;
78555;SDS011;67851;51.354;7.744;2023-06-14T13:21:14;2.13;;;1.50;;
78555;SDS011;67851;51.354;7.744;2023-06-14T13:23:40;5.03;;;1.60;;
78555;SDS011;67851;51.354;7.744;2023-06-14T13:26:05;2.72;;;1.50;;
78555;SDS011;67851;51.354;7.744;2023-06-14T13:28:31;2.13;;;1.60;;
78555;SDS011;67851;51.354;7.744;2023-06-14T13:30:57;4.65;;;2.08;;
78555;SDS011;67851;51.354;7.744;2023-06-14T13:33:23;3.55;;;1.55;;
78555;SDS011;67851;51.354;7.744;2023-06-14T13:35:50;2.45;;;1.70;;
78555;SDS011;67851;51.354;7.744;2023-06-14T13:38:17;4.05;;;1.50;;
78555;SDS011;67851;51.354;7.744;2023-06-14T13:40:43;6.72;;;1.98;;
78555;SDS011;67851;51.354;7.744;2023-06-14T13:43:10;2.25;;;1.73;;
78555;SDS011;67851;51.354;7.744;2023-06-14T13:45:35;5.90;;;2.20;;
78555;SDS011;67851;51.354;7.744;2023-06-14T13:48:01;9.32;;;1.98;;
78555;SDS011;67851;51.354;7.744;2023-06-14T13:50:27;7.30;;;1.88;;
78555;SDS011;67851;51.354;7.744;2023-06-14T13:52:52;4.65;;;1.70;;
78555;SDS011;67851;51.354;7.744;2023-06-14T13:55:18;6.03;;;1.60;;
78555;SDS011;67851;51.354;7.744;2023-06-14T13:57:47;6.03;;;1.70;;
78555;SDS011;67851;51.354;7.744;2023-06-14T14:00:15;8.82;;;2.05;;
78555;SDS011;67851;51.354;7.744;2023-06-14T14:02:41;3.65;;;1.90;;
78555;SDS011;67851;51.354;7.744;2023-06-14T14:05:08;2.92;;;1.80;;
78555;SDS011;67851;51.354;7.744;2023-06-14T14:10:17;5.45;;;1.70;;
78555;SDS011;67851;51.354;7.744;2023-06-14T14:12:45;3.20;;;1.77;;
78555;SDS011;67851;51.354;7.744;2023-06-14T14:15:11;4.65;;;2.05;;
78555;SDS011;67851;51.354;7.744;2023-06-14T14:17:40;4.05;;;1.77;;
78555;SDS011;67851;51.354;7.744;2023-06-14T14:20:06;2.80;;;1.60;;
78555;SDS011;67851;51.354;7.744;2023-06-14T14:22:32;2.78;;;2.00;;
78555;SDS011;67851;51.354;7.744;2023-06-14T14:24:59;4.30;;;1.90;;
78555;SDS011;67851;51.354;7.744;2023-06-14T14:27:25;5.57;;;2.00;;
78555;SDS011;67851;51.354;7.744;2023-06-14T14:29:51;5.82;;;2.10;;
78555;SDS011;67851;51.354;7.744;2023-06-14T14:32:17;2.92;;;1.80;;
78555;SDS011;67851;51.354;7.744;2023-06-14T14:34:45;2.53;;;1.52;;
78555;SDS011;67851;51.354;7.744;2023-06-14T14:37:12;3.53;;;1.83;;
78555;SDS011;67851;51.354;7.744;2023-06-14T14:39:40;4.88;;;2.40;;
78555;SDS011;67851;51.354;7.744;2023-06-14T14:42:07;3.92;;;1.88;;
78555;SDS011;67851;51.354;7.744;2023-06-14T14:44:32;7.95;;;2.22;;
78555;SDS011;67851;51.354;7.744;2023-06-14T14:46:58;5.82;;;1.70;;
78555;SDS011;67851;51.354;7.744;2023-06-14T14:49:23;5.10;;;2.08;;
78555;SDS011;67851;51.354;7.744;2023-06-14T14:51:50;8.35;;;2.60;;
78555;SDS011;67851;51.354;7.744;2023-06-14T14:54:16;2.17;;;1.92;;
78555;SDS011;67851;51.354;7.744;2023-06-14T14:56:41;4.88;;;1.73;;
78555;SDS011;67851;51.354;7.744;2023-06-14T14:59:10;5.55;;;2.03;;
78555;SDS011;67851;51.354;7.744;2023-06-14T15:01:37;3.30;;;1.90;;
78555;SDS011;67851;51.354;7.744;2023-06-14T15:06:33;4.28;;;1.85;;
78555;SDS011;67851;51.354;7.744;2023-06-14T15:09:04;4.32;;;1.83;;
78555;SDS011;67851;51.354;7.744;2023-06-14T15:11:29;4.57;;;2.45;;
78555;SDS011;67851;51.354;7.744;2023-06-14T15:13:56;7.55;;;1.95;;
78555;SDS011;67851;51.354;7.744;2023-06-14T15:16:22;6.20;;;2.15;;